Time;durP1;ratioP1;P1;durP2;ratioP2;P2;SDS_P1;SDS_P2;PMS_P1;PMS_P2;Temp;Humidity;BMP_temperature;BMP_pressure;BME280_temperature;BME280_humidity;BME280_pressure;Samples;Min_cycle;Max_cycle;Signal;HPM_P1;HPM_P2
2023/01/19 00:01:13;;;;;;;0.00;0.00;;;;;;;-0.68;94.66;97637.22;4897638;29;20266;-58
2023/01/19 00:03:41;;;;;;;0.00;0.00;;;;;;;-0.68;94.90;97639.78;4895858;28;20801;-58
2023/01/19 00:06:08;;;;;;;0.00;0.00;;;;;;;-0.58;93.92;97636.59;4898610;29;20716;-56
2023/01/19 00:08:35;;;;;;;0.00;0.00;;;;;;;-0.50;91.68;97645.38;4898394;28;20227;-59
2023/01/19 00:11:03;;;;;;;0.00;0.00;;;;;;;-0.40;89.92;97643.00;4902482;28;20338;-58
2023/01/19 00:13:30;;;;;;;0.00;0.00;;;;;;;-0.36;89.99;97646.19;4897940;28;20658;-58
2023/01/19 00:15:57;;;;;;;0.00;0.00;;;;;;;-0.38;90.43;97650.59;4904189;28;20238;-59
2023/01/19 00:18:25;;;;;;;0.00;0.00;;;;;;;-0.34;89.94;97646.91;4899668;28;20230;-58
2023/01/19 00:20:52;;;;;;;0.00;0.00;;;;;;;-0.30;88.94;97651.69;4899231;28;20238;-58
2023/01/19 00:23:19;;;;;;;0.00;0.00;;;;;;;-0.23;89.41;97649.53;4896305;29;20290;-58
2023/01/19 00:25:47;;;;;;;0.00;0.00;;;;;;;-0.23;88.67;97657.25;4895810;28;20322;-58
2023/01/19 00:28:17;;;;;;;0.00;0.00;;;;;;;-0.21;87.47;97655.38;4901811;28;20224;-58
2023/01/19 00:30:44;;;;;;;0.00;0.00;;;;;;;-0.16;86.39;97662.75;4895114;28;20230;-58
2023/01/19 00:33:13;;;;;;;0.00;0.00;;;;;;;-0.13;87.10;97652.28;4901250;28;20230;-58
2023/01/19 00:35:41;;;;;;;0.00;0.00;;;;;;;-0.14;87.30;97655.75;4894437;28;20227;-58
2023/01/19 00:38:08;;;;;;;0.00;0.00;;;;;;;-0.11;87.47;97665.00;4902375;28;20250;-57
2023/01/19 00:40:34;;;;;;;0.00;0.00;;;;;;;-0.14;86.77;97660.09;4896331;28;20238;-58
2023/01/19 00:43:00;;;;;;;0.00;0.00;;;;;;;-0.16;87.13;97661.00;4901933;28;20238;-58
2023/01/19 00:45:28;;;;;;;0.00;0.00;;;;;;;-0.13;87.46;97659.97;4892276;28;20656;-58
2023/01/19 00:47:55;;;;;;;0.00;0.00;;;;;;;-0.15;87.19;97661.81;4901120;28;20251;-58
2023/01/19 00:50:23;;;;;;;0.00;0.00;;;;;;;-0.16;86.69;97662.75;4901894;29;20230;-58
2023/01/19 00:52:51;;;;;;;0.00;0.00;;;;;;;-0.17;86.96;97661.09;4892759;28;20252;-58
2023/01/19 00:55:18;;;;;;;0.00;0.00;;;;;;;-0.18;88.01;97659.47;4902358;28;20234;-57
2023/01/19 00:57:45;;;;;;;0.00;0.00;;;;;;;-0.16;86.93;97665.31;4898895;28;20716;-58
2023/01/19 01:00:14;;;;;;;0.00;0.00;;;;;;;-0.16;86.66;97665.31;4901861;28;20240;-60
2023/01/19 01:02:43;;;;;;;0.00;0.00;;;;;;;-0.16;86.35;97665.31;4896635;28;20243;-57
2023/01/19 01:05:11;;;;;;;0.00;0.00;;;;;;;-0.08;84.91;97669.94;4903676;28;20235;-58
2023/01/19 01:07:39;;;;;;;0.00;0.00;;;;;;;-0.10;85.67;97670.03;4895671;28;20239;-56
2023/01/19 01:10:07;;;;;;;0.00;0.00;;;;;;;-0.06;84.65;97670.63;4900294;28;20246;-57
2023/01/19 01:12:34;;;;;;;0.00;0.00;;;;;;;-0.05;83.99;97674.84;4897951;28;20754;-58
2023/01/19 01:15:01;;;;;;;0.00;0.00;;;;;;;-0.02;84.93;97672.88;4900297;28;20299;-57
2023/01/19 01:17:27;;;;;;;0.00;0.00;;;;;;;-0.02;84.85;97677.19;4896557;28;20235;-59
2023/01/19 01:19:55;;;;;;;0.00;0.00;;;;;;;-0.02;85.56;97679.75;4901898;29;20231;-59
2023/01/19 01:22:22;;;;;;;0.00;0.00;;;;;;;-0.05;83.38;97679.97;4899759;28;20232;-58
2023/01/19 01:24:48;;;;;;;0.00;0.00;;;;;;;-0.06;83.36;97680.91;4889387;28;20249;-59
2023/01/19 01:27:15;;;;;;;0.00;0.00;;;;;;;-0.06;83.28;97683.47;4903289;28;20230;-58
2023/01/19 01:29:45;;;;;;;0.00;0.00;;;;;;;-0.06;83.19;97675.78;4895921;28;20722;-58
2023/01/19 01:32:12;;;;;;;0.00;0.00;;;;;;;-0.04;83.86;97686.75;4898423;29;20641;-58
2023/01/19 01:34:39;;;;;;;0.00;0.00;;;;;;;-0.07;82.52;97682.63;4893534;28;20240;-59
2023/01/19 01:37:07;;;;;;;0.00;0.00;;;;;;;-0.11;82.51;97678.63;4897812;28;20234;-59
2023/01/19 01:39:34;;;;;;;0.00;0.00;;;;;;;-0.10;82.56;97679.47;4896023;28;20250;-57
2023/01/19 01:42:00;;;;;;;0.00;0.00;;;;;;;-0.11;81.61;97677.84;4896865;29;20851;-56
2023/01/19 01:44:50;;;;;;;0.00;0.00;;;;;;;-0.12;80.99;97673.63;4895209;28;21082;-58
2023/01/19 01:47:24;;;;;;;0.00;0.00;;;;;;;-0.13;82.15;97677.94;4899306;28;20683;-57
2023/01/19 01:49:55;;;;;;;0.00;0.00;;;;;;;-0.08;80.91;97675.06;4897188;28;20780;-56
2023/01/19 01:52:28;;;;;;;0.00;0.00;;;;;;;-0.12;81.06;97674.44;4901992;28;20250;-58
2023/01/19 01:54:57;;;;;;;0.00;0.00;;;;;;;-0.19;82.67;97671.50;4896812;29;20236;-58
2023/01/19 01:57:26;;;;;;;0.00;0.00;;;;;;;-0.18;83.77;97675.69;4896400;28;20330;-58
2023/01/19 01:59:56;;;;;;;0.00;0.00;;;;;;;-0.17;81.00;97681.63;4897168;28;20250;-58
2023/01/19 02:05:15;;;;;;;0.00;0.00;;;;;;;-0.12;82.59;97689.03;4898076;29;20371;-58
2023/01/19 02:13:19;;;;;;;0.00;0.00;;;;;;;-0.04;81.03;97679.06;4901409;28;20292;-57
2023/01/19 02:15:47;;;;;;;0.00;0.00;;;;;;;0.01;80.80;97684.66;4898676;28;20249;-57
2023/01/19 02:18:13;;;;;;;0.00;0.00;;;;;;;0.06;80.82;97685.16;4896750;28;20287;-57
2023/01/19 02:20:44;;;;;;;0.00;0.00;;;;;;;0.00;80.01;97685.59;4896136;28;20231;-57
2023/01/19 02:23:19;;;;;;;0.00;0.00;;;;;;;0.01;79.78;97681.28;4899134;28;20226;-59
2023/01/19 02:25:48;;;;;;;0.00;0.00;;;;;;;-0.01;80.40;97681.41;4897744;28;20877;-58
2023/01/19 02:28:15;;;;;;;0.00;0.00;;;;;;;-0.02;80.55;97683.13;4899924;28;20221;-58
2023/01/19 02:30:42;;;;;;;0.00;0.00;;;;;;;0.01;80.89;97681.28;4891243;28;20243;-57
2023/01/19 02:33:09;;;;;;;0.00;0.00;;;;;;;-0.02;80.79;97684.88;4897282;28;20234;-58
2023/01/19 02:35:38;;;;;;;0.00;0.00;;;;;;;-0.02;81.58;97685.69;4896096;29;20242;-57
2023/01/19 02:38:06;;;;;;;0.00;0.00;;;;;;;0.00;81.11;97685.59;4898861;28;20320;-58
2023/01/19 02:40:33;;;;;;;0.00;0.00;;;;;;;0.02;81.49;97682.91;4894197;28;20231;-56
2023/01/19 02:43:02;;;;;;;0.00;0.00;;;;;;;-0.02;82.40;97677.19;4900887;28;20314;-57
2023/01/19 02:45:29;;;;;;;0.00;0.00;;;;;;;-0.01;81.45;97679.63;4896114;28;20298;-58
2023/01/19 02:47:56;;;;;;;0.00;0.00;;;;;;;0.01;80.34;97683.84;4896900;28;20371;-58
2023/01/19 02:50:40;;;;;;;0.00;0.00;;;;;;;0.05;79.44;97680.13;4894800;29;20705;-57
2023/01/19 02:53:19;;;;;;;0.00;0.00;;;;;;;-0.02;80.30;97687.47;4894045;29;20668;-58
2023/01/19 02:55:53;;;;;;;0.00;0.00;;;;;;;-0.02;80.70;97688.25;4897793;28;20241;-58
2023/01/19 02:58:30;;;;;;;0.00;0.00;;;;;;;-0.01;80.96;97683.97;4896447;28;20297;-57
2023/01/19 03:01:07;;;;;;;0.00;0.00;;;;;;;-0.03;80.96;97690.94;4898113;28;20271;-57
2023/01/19 03:03:48;;;;;;;0.00;0.00;;;;;;;-0.09;81.00;97686.25;4893466;28;20232;-57
2023/01/19 03:06:24;;;;;;;0.00;0.00;;;;;;;-0.16;80.55;97685.84;4896338;28;20703;-58
2023/01/19 03:08:55;;;;;;;0.00;0.00;;;;;;;-0.18;81.26;97682.56;4892153;29;20242;-59
2023/01/19 03:11:27;;;;;;;0.00;0.00;;;;;;;-0.18;81.91;97674.84;4899236;28;20231;-56
2023/01/19 03:14:01;;;;;;;0.00;0.00;;;;;;;-0.17;82.40;97674.78;4892615;29;20311;-58
2023/01/19 03:16:35;;;;;;;0.00;0.00;;;;;;;-0.09;82.26;97678.56;4896929;28;20234;-59
2023/01/19 03:19:08;;;;;;;0.00;0.00;;;;;;;-0.11;80.89;97677.84;4897027;28;20246;-58
2023/01/19 03:21:36;;;;;;;0.00;0.00;;;;;;;-0.13;81.46;97675.34;4891446;28;20255;-58
2023/01/19 03:24:06;;;;;;;0.00;0.00;;;;;;;-0.15;81.58;97672.09;4895357;28;20310;-59
2023/01/19 03:26:41;;;;;;;0.00;0.00;;;;;;;-0.14;81.84;97680.63;4896574;28;20239;-59
2023/01/19 03:29:12;;;;;;;0.00;0.00;;;;;;;-0.10;82.10;97677.72;4896975;29;20237;-59
2023/01/19 03:31:41;;;;;;;0.00;0.00;;;;;;;-0.08;81.75;97685.31;4896810;28;20295;-59
2023/01/19 03:34:12;;;;;;;0.00;0.00;;;;;;;-0.10;81.15;97687.97;4898743;28;20235;-59
2023/01/19 03:36:44;;;;;;;0.00;0.00;;;;;;;-0.08;81.79;97680.19;4901652;28;20703;-59
2023/01/19 03:39:14;;;;;;;0.00;0.00;;;;;;;-0.03;78.51;97686.63;4905913;28;20317;-59
2023/01/19 03:41:42;;;;;;;0.00;0.00;;;;;;;0.01;78.53;97689.78;4905966;28;20287;-59
2023/01/19 03:44:11;;;;;;;0.00;0.00;;;;;;;-0.04;79.60;97691.88;4908661;28;20241;-58
2023/01/19 03:46:38;;;;;;;0.00;0.00;;;;;;;-0.04;78.60;97692.69;4909363;28;20658;-57
2023/01/19 03:49:06;;;;;;;0.00;0.00;;;;;;;-0.01;77.97;97691.66;4908520;29;20263;-59
2023/01/19 03:51:36;;;;;;;0.00;0.00;;;;;;;-0.13;77.23;97689.94;4926505;28;20258;-59
2023/01/19 03:54:03;;;;;;;0.00;0.00;;;;;;;-0.22;77.29;97681.13;4911822;28;20239;-59
2023/01/19 03:56:29;;;;;;;0.00;0.00;;;;;;;-0.34;77.68;97683.59;4907537;28;20244;-57
2023/01/19 03:58:56;;;;;;;0.00;0.00;;;;;;;-0.45;79.14;97688.66;4912988;28;20246;-57
2023/01/19 04:01:24;;;;;;;0.00;0.00;;;;;;;-0.58;79.43;97693.00;4914839;28;20286;-58
2023/01/19 04:03:51;;;;;;;0.00;0.00;;;;;;;-0.63;79.88;97689.00;4904689;28;20242;-58
2023/01/19 04:06:19;;;;;;;0.00;0.00;;;;;;;-0.69;79.02;97696.25;4906245;29;20283;-59
2023/01/19 04:08:47;;;;;;;0.00;0.00;;;;;;;-0.72;79.56;97691.34;4902946;28;20292;-58
2023/01/19 04:11:14;;;;;;;0.00;0.00;;;;;;;-0.88;79.58;97700.03;4908897;28;20293;-59
2023/01/19 04:13:40;;;;;;;0.00;0.00;;;;;;;-0.81;78.68;97691.03;4909734;28;20241;-59
2023/01/19 04:16:09;;;;;;;0.00;0.00;;;;;;;-0.85;79.45;97687.03;4910012;29;20233;-58
2023/01/19 04:18:37;;;;;;;0.00;0.00;;;;;;;-0.93;80.27;97691.84;4910864;28;20250;-59
2023/01/19 04:21:05;;;;;;;0.00;0.00;;;;;;;-0.97;79.88;97698.09;4909882;28;20303;-58
2023/01/19 04:23:33;;;;;;;0.00;0.00;;;;;;;-1.08;80.22;97691.13;4906729;28;20295;-58
2023/01/19 04:26:01;;;;;;;0.00;0.00;;;;;;;-1.10;80.10;97706.59;4911674;29;20238;-58
2023/01/19 04:28:28;;;;;;;0.00;0.00;;;;;;;-1.20;81.76;97700.44;4909723;29;20232;-58
2023/01/19 04:33:29;;;;;;;0.00;0.00;;;;;;;-1.30;83.36;97700.19;4863817;29;20239;-58
2023/01/19 04:35:57;;;;;;;0.00;0.00;;;;;;;-1.16;83.31;97722.34;4887050;29;20622;-55
2023/01/19 04:38:24;;;;;;;0.00;0.00;;;;;;;-1.19;83.60;97717.44;4888870;29;20715;-55
2023/01/19 04:40:52;;;;;;;0.00;0.00;;;;;;;-1.15;83.88;97713.75;4883228;29;20250;-56
2023/01/19 04:43:18;;;;;;;0.00;0.00;;;;;;;-1.14;84.85;97710.28;4887027;29;20226;-54
2023/01/19 04:45:49;;;;;;;0.00;0.00;;;;;;;-1.03;82.17;97707.00;4882982;29;20282;-59
2023/01/19 04:48:17;;;;;;;0.00;0.00;;;;;;;-1.03;83.44;97714.69;4923960;23;20244;-58
2023/01/19 04:50:43;;;;;;;0.00;0.00;;;;;;;-1.15;84.42;97710.38;4907494;29;20228;-59
2023/01/19 04:53:12;;;;;;;0.00;0.00;;;;;;;-1.24;84.68;97711.78;4911129;29;20231;-59
2023/01/19 04:55:39;;;;;;;0.00;0.00;;;;;;;-1.23;84.49;97708.31;4907198;28;20221;-58
2023/01/19 04:58:06;;;;;;;0.00;0.00;;;;;;;-1.14;84.91;97707.72;4909743;28;20232;-59
2023/01/19 05:00:32;;;;;;;0.00;0.00;;;;;;;-1.16;84.14;97711.28;4911124;28;20296;-59
2023/01/19 05:02:59;;;;;;;0.00;0.00;;;;;;;-1.07;84.34;97718.38;4915504;29;20783;-58
2023/01/19 05:05:26;;;;;;;0.00;0.00;;;;;;;-1.04;84.13;97718.16;4908769;28;20238;-59
2023/01/19 05:07:53;;;;;;;0.00;0.00;;;;;;;-0.94;83.10;97733.75;4914436;28;20338;-56
2023/01/19 05:10:22;;;;;;;0.00;0.00;;;;;;;-0.82;83.17;97738.06;4911906;29;20242;-56
2023/01/19 05:12:50;;;;;;;0.00;0.00;;;;;;;-0.70;79.10;97718.53;4909711;28;20314;-57
2023/01/19 05:15:16;;;;;;;0.00;0.00;;;;;;;-0.58;79.28;97727.13;4906638;29;20236;-56
2023/01/19 05:17:43;;;;;;;0.00;0.00;;;;;;;-0.56;78.39;97735.53;4908483;28;20771;-56
2023/01/19 05:20:11;;;;;;;0.00;0.00;;;;;;;-0.53;79.10;97732.75;4919088;29;20243;-57
2023/01/19 05:22:38;;;;;;;0.00;0.00;;;;;;;-0.47;79.82;97726.38;4908786;28;20242;-57
2023/01/19 05:25:07;;;;;;;0.00;0.00;;;;;;;-0.40;78.67;97724.25;4913614;28;20348;-57
2023/01/19 05:27:35;;;;;;;0.00;0.00;;;;;;;-0.37;79.41;97724.84;4907450;28;20276;-56
2023/01/19 05:30:03;;;;;;;0.00;0.00;;;;;;;-0.34;79.72;97727.19;4915472;28;20246;-56
2023/01/19 05:32:30;;;;;;;0.00;0.00;;;;;;;-0.38;80.56;97728.34;4913540;28;20245;-57
2023/01/19 05:34:56;;;;;;;0.00;0.00;;;;;;;-0.39;82.55;97725.88;4909932;28;20246;-57
2023/01/19 05:37:23;;;;;;;0.00;0.00;;;;;;;-0.36;81.14;97729.06;4911702;28;20239;-57
2023/01/19 05:39:49;;;;;;;0.00;0.00;;;;;;;-0.33;81.28;97740.84;4905469;28;20364;-57
2023/01/19 05:42:16;;;;;;;0.00;0.00;;;;;;;-0.33;83.15;97744.22;4913003;29;20250;-57
2023/01/19 05:44:44;;;;;;;0.00;0.00;;;;;;;-0.33;83.30;97739.09;4907960;28;20907;-57
2023/01/19 05:47:10;;;;;;;0.00;0.00;;;;;;;-0.27;82.59;97748.13;4907041;28;20252;-56
2023/01/19 05:49:37;;;;;;;0.00;0.00;;;;;;;-0.25;81.78;97737.75;4909502;28;20229;-58
2023/01/19 05:52:04;;;;;;;0.00;0.00;;;;;;;-0.23;82.58;97738.47;4909261;28;20240;-57
2023/01/19 05:54:30;;;;;;;0.00;0.00;;;;;;;-0.32;82.11;97730.47;4907857;28;20288;-57
2023/01/19 05:56:57;;;;;;;0.00;0.00;;;;;;;-0.40;82.38;97735.31;4914988;28;20292;-57
2023/01/19 05:59:23;;;;;;;0.00;0.00;;;;;;;-0.36;81.45;97730.81;4913162;28;20293;-57
2023/01/19 06:01:51;;;;;;;0.00;0.00;;;;;;;-0.37;82.37;97737.66;4910860;29;20245;-56
2023/01/19 06:04:19;;;;;;;0.00;0.00;;;;;;;-0.30;82.31;97749.16;4905402;29;20792;-56
2023/01/19 06:06:47;;;;;;;0.00;0.00;;;;;;;-0.23;82.23;97743.59;4914312;28;20301;-57
2023/01/19 06:09:14;;;;;;;0.00;0.00;;;;;;;-0.21;81.04;97745.16;4916116;28;20233;-58
2023/01/19 06:11:40;;;;;;;0.00;0.00;;;;;;;-0.21;81.74;97745.16;4913274;28;20245;-57
2023/01/19 06:14:07;;;;;;;0.00;0.00;;;;;;;-0.22;81.84;97751.22;4913076;28;20338;-57
2023/01/19 06:16:33;;;;;;;0.00;0.00;;;;;;;-0.19;81.55;97747.59;4910807;28;20233;-57
2023/01/19 06:19:01;;;;;;;0.00;0.00;;;;;;;-0.22;81.86;97748.66;4913354;28;20834;-57
2023/01/19 06:21:28;;;;;;;0.00;0.00;;;;;;;-0.20;80.80;97759.63;4906746;28;20247;-57
2023/01/19 06:23:54;;;;;;;0.00;0.00;;;;;;;-0.21;81.87;97754.59;4910204;29;20799;-57
2023/01/19 06:26:21;;;;;;;0.00;0.00;;;;;;;-0.21;80.88;97760.53;4913781;28;20254;-57
2023/01/19 06:28:47;;;;;;;0.00;0.00;;;;;;;-0.23;80.92;97761.56;4909444;28;20306;-56
2023/01/19 06:31:14;;;;;;;0.00;0.00;;;;;;;-0.18;79.59;97760.34;4911578;28;20248;-57
2023/01/19 06:33:40;;;;;;;0.00;0.00;;;;;;;-0.16;78.63;97771.31;4907605;28;20236;-58
2023/01/19 06:36:09;;;;;;;0.00;0.00;;;;;;;-0.11;80.89;97771.00;4909276;28;20339;-58
2023/01/19 06:38:36;;;;;;;0.00;0.00;;;;;;;-0.08;80.20;97769.97;4905507;28;20323;-57
2023/01/19 06:41:03;;;;;;;0.00;0.00;;;;;;;-0.08;80.40;97773.34;4913251;28;20239;-58
2023/01/19 06:43:30;;;;;;;0.00;0.00;;;;;;;-0.04;79.59;97769.66;4903236;29;20877;-58
2023/01/19 06:45:57;;;;;;;0.00;0.00;;;;;;;-0.06;80.17;97770.69;4903685;28;20712;-57
2023/01/19 06:48:24;;;;;;;0.00;0.00;;;;;;;-0.08;80.42;97769.97;4910084;29;20219;-57
2023/01/19 06:50:50;;;;;;;0.00;0.00;;;;;;;-0.06;80.08;97778.38;4909382;28;21150;-58
2023/01/19 06:53:21;;;;;;;0.00;0.00;;;;;;;-0.09;80.88;97774.28;4910759;28;20231;-57
2023/01/19 06:55:47;;;;;;;0.00;0.00;;;;;;;-0.11;81.92;97778.69;4911227;28;20268;-57
2023/01/19 06:58:14;;;;;;;0.00;0.00;;;;;;;-0.10;81.22;97782.09;4911613;29;20270;-57
2023/01/19 07:00:41;;;;;;;0.00;0.00;;;;;;;-0.05;82.01;97785.16;4906481;28;20883;-58
2023/01/19 07:03:08;;;;;;;0.00;0.00;;;;;;;-0.02;82.19;97787.53;4906824;28;20239;-57
2023/01/19 07:05:36;;;;;;;0.00;0.00;;;;;;;-0.03;82.67;97784.13;4902947;28;20340;-58
2023/01/19 07:08:03;;;;;;;0.00;0.00;;;;;;;-0.03;81.21;97781.56;4908087;28;20295;-57
2023/01/19 07:10:31;;;;;;;0.00;0.00;;;;;;;0.04;81.57;97787.06;4911292;28;20273;-58
2023/01/19 07:12:58;;;;;;;0.00;0.00;;;;;;;0.05;80.40;97787.91;4909111;28;20720;-58
2023/01/19 07:15:24;;;;;;;0.00;0.00;;;;;;;0.06;80.66;97792.13;4903545;29;20818;-58
2023/01/19 07:17:51;;;;;;;0.00;0.00;;;;;;;0.07;80.88;97783.50;4907418;29;20248;-58
2023/01/19 07:20:18;;;;;;;0.00;0.00;;;;;;;0.00;80.36;97788.22;4912641;28;20611;-57
2023/01/19 07:22:45;;;;;;;0.10;0.10;;;;;;;0.06;79.42;97786.97;4905136;28;20330;-59
2023/01/19 07:25:12;;;;;;;0.00;0.00;;;;;;;0.07;79.66;97797.13;4909784;29;20725;-58
2023/01/19 07:27:41;;;;;;;0.00;0.00;;;;;;;0.13;79.89;97795.91;4913602;28;20809;-58
2023/01/19 07:30:08;;;;;;;0.00;0.00;;;;;;;0.14;79.12;97800.91;4908900;28;20235;-58
2023/01/19 07:32:35;;;;;;;0.00;0.00;;;;;;;0.20;79.40;97804.81;4910849;28;20627;-58
2023/01/19 07:35:02;;;;;;;0.00;0.00;;;;;;;0.19;78.99;97804.91;4908293;28;20245;-59
2023/01/19 07:37:28;;;;;;;0.00;0.00;;;;;;;0.22;79.71;97808.09;4906712;29;20228;-60
2023/01/19 07:39:55;;;;;;;0.00;0.00;;;;;;;0.22;79.39;97805.53;4908205;28;20241;-59
2023/01/19 07:42:22;;;;;;;0.00;0.00;;;;;;;0.25;78.47;97805.31;4912366;28;20256;-60
2023/01/19 07:44:49;;;;;;;0.00;0.00;;;;;;;0.31;77.81;97810.97;4906946;28;20302;-60
2023/01/19 07:47:16;;;;;;;0.00;0.00;;;;;;;0.33;78.40;97801.41;4905386;29;20390;-59
2023/01/19 07:49:43;;;;;;;0.00;0.00;;;;;;;0.37;79.32;97806.22;4916568;28;20298;-59
2023/01/19 07:52:09;;;;;;;0.00;0.00;;;;;;;0.39;78.39;97804.34;4914085;29;20248;-59
2023/01/19 07:54:36;;;;;;;0.00;0.00;;;;;;;0.48;78.82;97812.34;4903891;28;20231;-58
2023/01/19 07:57:02;;;;;;;0.00;0.00;;;;;;;0.46;77.01;97809.06;4915579;28;20546;-59
2023/01/19 07:59:31;;;;;;;0.00;0.00;;;;;;;0.44;75.72;97804.84;4910714;29;20227;-59
2023/01/19 08:01:59;;;;;;;0.00;0.00;;;;;;;0.45;76.11;97808.25;4914547;28;20759;-58
2023/01/19 08:04:26;;;;;;;0.00;0.00;;;;;;;0.50;77.22;97819.03;4913113;28;20227;-58
2023/01/19 08:06:52;;;;;;;0.00;0.00;;;;;;;0.54;76.66;97822.19;4909795;29;20244;-59
2023/01/19 08:09:19;;;;;;;0.00;0.00;;;;;;;0.53;76.20;97828.25;4915371;29;20763;-59
2023/01/19 08:11:46;;;;;;;0.00;0.00;;;;;;;0.58;76.65;97832.13;4910913;28;20801;-59
2023/01/19 08:14:12;;;;;;;0.00;0.00;;;;;;;0.57;77.99;97834.81;4915388;28;20246;-59
2023/01/19 08:16:39;;;;;;;0.00;0.00;;;;;;;0.68;75.39;97840.03;4910458;28;20239;-60
2023/01/19 08:19:07;;;;;;;0.00;0.00;;;;;;;0.64;75.85;97835.19;4917364;28;20653;-60
2023/01/19 08:21:34;;;;;;;0.00;0.00;;;;;;;0.64;77.94;97830.91;4909527;28;20238;-60
2023/01/19 08:24:01;;;;;;;0.00;0.00;;;;;;;0.64;77.18;97830.06;4911949;28;20644;-60
2023/01/19 08:26:30;;;;;;;0.00;0.00;;;;;;;0.52;76.54;97837.72;4911012;28;20269;-60
2023/01/19 08:28:58;;;;;;;0.07;0.07;;;;;;;0.67;75.24;97847.81;4913468;28;20299;-59
2023/01/19 08:31:25;;;;;;;0.00;0.00;;;;;;;0.64;77.06;97845.47;4916672;28;20569;-59
2023/01/19 08:33:52;;;;;;;0.00;0.00;;;;;;;0.64;75.75;97842.91;4903771;28;20295;-58
2023/01/19 08:36:21;;;;;;;0.00;0.00;;;;;;;0.61;77.83;97854.22;4914415;28;20595;-59
2023/01/19 08:38:48;;;;;;;0.00;0.00;;;;;;;0.57;76.84;97851.03;4906738;28;20243;-60
2023/01/19 08:41:16;;;;;;;0.00;0.00;;;;;;;0.54;77.07;97853.81;4910459;29;20247;-60
2023/01/19 08:43:43;;;;;;;0.00;0.00;;;;;;;0.66;77.75;97848.75;4908139;29;20328;-59
2023/01/19 08:46:10;;;;;;;0.00;0.00;;;;;;;0.67;77.00;97855.53;4912145;28;20231;-60
2023/01/19 08:48:36;;;;;;;0.00;0.00;;;;;;;0.63;78.20;97856.69;4907338;28;20224;-59
2023/01/19 08:51:03;;;;;;;0.00;0.00;;;;;;;0.67;79.74;97869.22;4912431;28;20311;-59
2023/01/19 08:53:31;;;;;;;0.00;0.00;;;;;;;0.65;78.08;97859.97;4907449;28;20276;-60
2023/01/19 08:56:00;;;;;;;0.00;0.00;;;;;;;0.67;78.98;97871.78;4912128;29;20714;-59
2023/01/19 08:58:27;;;;;;;0.00;0.00;;;;;;;0.58;78.96;97875.78;4905060;29;20676;-58
2023/01/19 09:00:54;;;;;;;0.00;0.00;;;;;;;0.63;78.33;97879.78;4909148;28;20684;-59
2023/01/19 09:03:21;;;;;;;0.00;0.00;;;;;;;0.65;79.89;97867.66;4914690;28;20232;-58
2023/01/19 09:05:48;;;;;;;0.00;0.00;;;;;;;0.55;78.49;97880.34;4912963;28;20240;-59
2023/01/19 09:08:15;;;;;;;0.00;0.00;;;;;;;0.68;80.11;97888.00;4918113;29;20756;-58
2023/01/19 09:10:47;;;;;;;0.00;0.00;;;;;;;0.64;78.89;97882.25;4913273;29;20572;-59
2023/01/19 09:13:14;;;;;;;0.00;0.00;;;;;;;0.67;78.76;97876.91;4915483;29;20698;-59
2023/01/19 09:15:42;;;;;;;0.00;0.00;;;;;;;0.80;78.43;97868.34;4911953;28;20317;-57
2023/01/19 09:18:12;;;;;;;0.00;0.00;;;;;;;0.87;78.70;97872.94;4912378;28;20239;-58
2023/01/19 09:20:41;;;;;;;0.00;0.00;;;;;;;1.02;78.95;97867.66;4906812;28;20238;-55
2023/01/19 09:23:09;;;;;;;0.00;0.00;;;;;;;0.99;77.81;97871.28;4913016;28;20330;-58
2023/01/19 09:25:36;;;;;;;0.00;0.00;;;;;;;1.06;77.78;97876.78;4907809;28;20235;-58
2023/01/19 09:28:04;;;;;;;0.00;0.00;;;;;;;1.05;77.82;97876.91;4910212;29;20248;-59
2023/01/19 09:30:31;;;;;;;0.00;0.00;;;;;;;1.10;76.72;97874.81;4906174;28;20274;-59
2023/01/19 09:33:02;;;;;;;0.00;0.00;;;;;;;0.91;77.02;97871.00;4910057;29;20251;-59
2023/01/19 09:35:30;;;;;;;0.00;0.00;;;;;;;1.03;78.56;97882.13;4911557;28;20259;-58
2023/01/19 09:37:57;;;;;;;0.00;0.00;;;;;;;1.12;77.77;97880.66;4912511;28;20239;-58
2023/01/19 09:40:24;;;;;;;0.00;0.00;;;;;;;1.16;76.61;97882.06;4911347;29;20234;-58
2023/01/19 09:42:58;;;;;;;0.00;0.00;;;;;;;1.67;82.79;97883.56;4906227;29;20232;-60
2023/01/19 09:45:36;;;;;;;0.00;0.00;;;;;;;1.61;75.75;97871.97;4910039;28;20243;-57
2023/01/19 09:48:07;;;;;;;0.00;0.00;;;;;;;1.62;74.22;97876.19;4905302;28;20234;-61
2023/01/19 09:50:38;;;;;;;0.00;0.00;;;;;;;1.75;74.87;97870.13;4911869;28;20238;-61
2023/01/19 09:53:13;;;;;;;0.00;0.00;;;;;;;1.64;73.57;97870.09;4910019;28;20236;-61
2023/01/19 09:55:41;;;;;;;0.00;0.00;;;;;;;1.67;74.00;97868.13;4910556;28;20224;-61
2023/01/19 09:58:12;;;;;;;0.00;0.00;;;;;;;1.64;72.93;97868.34;4914386;29;20252;-60
2023/01/19 10:00:41;;;;;;;0.00;0.00;;;;;;;1.79;72.29;97870.72;4903642;28;20221;-61
2023/01/19 10:03:15;;;;;;;0.00;0.00;;;;;;;1.84;71.02;97877.19;4911295;28;20403;-61
2023/01/19 10:05:46;;;;;;;0.00;0.00;;;;;;;1.90;70.90;97875.88;4907605;28;20299;-61
2023/01/19 10:08:22;;;;;;;0.00;0.00;;;;;;;2.17;71.30;97888.44;4911524;28;20241;-62
2023/01/19 10:10:53;;;;;;;0.00;0.00;;;;;;;2.11;69.76;97867.50;4907721;28;20242;-61
2023/01/19 10:13:30;;;;;;;0.00;0.00;;;;;;;2.38;68.40;97872.28;4913364;28;20247;-61
2023/01/19 10:16:07;;;;;;;0.00;0.00;;;;;;;2.38;68.83;97874.06;4911089;28;20239;-61
2023/01/19 10:18:46;;;;;;;0.00;0.00;;;;;;;2.33;69.15;97875.22;4912587;28;20709;-62
2023/01/19 10:21:17;;;;;;;0.00;0.00;;;;;;;2.28;68.95;97879.91;4910778;28;20247;-61
2023/01/19 10:23:47;;;;;;;0.00;0.00;;;;;;;2.08;67.73;97881.44;4911181;28;20297;-62
2023/01/19 10:26:17;;;;;;;0.00;0.00;;;;;;;2.21;69.52;97882.13;4907398;28;20776;-61
2023/01/19 10:28:46;;;;;;;0.00;0.00;;;;;;;2.32;68.83;97877.91;4909581;29;20883;-61
2023/01/19 10:31:17;;;;;;;0.00;0.00;;;;;;;2.41;67.63;97879.78;4910153;28;20239;-61
2023/01/19 10:33:44;;;;;;;0.07;0.07;;;;;;;2.42;67.77;97875.47;4907514;29;20228;-62
2023/01/19 10:36:17;;;;;;;0.00;0.00;;;;;;;2.32;69.39;97876.16;4914843;29;20217;-62
2023/01/19 10:38:45;;;;;;;0.00;0.00;;;;;;;2.31;68.20;97868.53;4903623;28;20240;-62
2023/01/19 10:41:17;;;;;;;0.00;0.00;;;;;;;2.34;69.87;97876.88;4913829;28;20247;-62
2023/01/19 10:43:45;;;;;;;0.00;0.00;;;;;;;2.43;70.04;97883.06;4906523;28;20313;-61
2023/01/19 10:46:24;;;;;;;0.00;0.00;;;;;;;2.57;69.15;97876.88;4909991;28;20231;-62
2023/01/19 10:48:53;;;;;;;0.03;0.03;;;;;;;2.78;68.59;97879.53;4903432;29;20576;-63
2023/01/19 10:51:20;;;;;;;0.00;0.00;;;;;;;2.68;68.16;97881.19;4907866;28;20234;-60
2023/01/19 10:53:56;;;;;;;0.00;0.00;;;;;;;2.71;68.66;97887.84;4906204;28;20901;-62
2023/01/19 10:56:29;;;;;;;0.00;0.00;;;;;;;2.63;65.97;97878.13;4907978;28;20912;-62
2023/01/19 10:58:56;;;;;;;0.00;0.00;;;;;;;2.67;68.35;97879.53;4905561;29;20303;-63
2023/01/19 11:01:26;;;;;;;0.00;0.00;;;;;;;2.59;68.04;97882.72;4910481;28;20247;-63
2023/01/19 11:03:55;;;;;;;0.00;0.00;;;;;;;2.47;68.83;97883.66;4911317;28;20237;-62
2023/01/19 11:06:26;;;;;;;0.10;0.10;;;;;;;2.28;69.41;97887.63;4910282;28;20239;-62
2023/01/19 11:08:54;;;;;;;0.00;0.00;;;;;;;2.61;68.90;97883.44;4908952;29;20246;-62
2023/01/19 11:11:23;;;;;;;0.00;0.00;;;;;;;2.50;68.17;97891.97;4910143;29;20793;-62
2023/01/19 11:14:04;;;;;;;0.00;0.00;;;;;;;2.49;67.48;97882.59;4906957;29;20236;-63
2023/01/19 11:16:36;;;;;;;0.07;0.07;;;;;;;2.52;70.08;97889.28;4911041;28;20282;-62
2023/01/19 11:19:04;;;;;;;0.00;0.00;;;;;;;2.54;69.72;97884.84;4910754;29;20259;-62
2023/01/19 11:21:32;;;;;;;0.00;0.00;;;;;;;2.61;69.76;97888.59;4911223;28;20728;-61
2023/01/19 11:24:04;;;;;;;0.00;0.00;;;;;;;2.38;71.25;97881.78;4913284;28;20924;-63
2023/01/19 11:26:34;;;;;;;0.00;0.00;;;;;;;2.35;71.64;97882.84;4911083;29;20306;-63
2023/01/19 11:29:03;;;;;;;0.00;0.00;;;;;;;2.45;70.13;97880.38;4912717;28;20254;-62
2023/01/19 11:31:35;;;;;;;0.00;0.00;;;;;;;2.27;69.79;97875.69;4915312;28;20231;-62
2023/01/19 11:34:04;;;;;;;0.00;0.00;;;;;;;2.38;70.93;97884.38;4915113;28;20242;-62
2023/01/19 11:36:32;;;;;;;0.00;0.00;;;;;;;2.64;70.39;97887.50;4910663;28;20713;-62
2023/01/19 11:39:13;;;;;;;0.00;0.00;;;;;;;2.75;71.36;97895.22;4911984;28;20246;-61
2023/01/19 11:41:41;;;;;;;0.00;0.00;;;;;;;2.97;70.42;97885.00;4910470;28;20239;-62
2023/01/19 11:44:14;;;;;;;0.00;0.00;;;;;;;2.93;70.07;97882.66;4909821;28;20264;-61
2023/01/19 11:46:45;;;;;;;0.00;0.00;;;;;;;2.90;69.34;97880.31;4910538;29;20287;-62
2023/01/19 11:49:20;;;;;;;0.00;0.00;;;;;;;2.77;70.53;97880.47;4916373;28;20243;-62
2023/01/19 11:51:56;;;;;;;0.00;0.00;;;;;;;2.73;69.51;97871.34;4913318;28;23504;-62
2023/01/19 11:54:28;;;;;;;0.00;0.00;;;;;;;2.55;69.92;97875.34;4917074;28;20227;-62